Terminal Aerodrome Forecast
Issued by NWS

Home | Current Version | Previous Version | Text Only | Print | Product List | Glossary On
Versions: 1 2 3 4 5 6 7 8 9 10 11 12 13 14 15
000
FTUS41 KPHI 300914 AAA
TAFPNE
TAF AMD
KPNE 300914Z 3009/3106 VRB03KT P6SM VCSH SCT012 BKN025 OVC050
      TEMPO 3009/3013 3SM -SHRA BR OVC012
     FM301400 23005KT P6SM OVC035
     FM301800 20005KT P6SM -SHRA OVC035
     FM310200 25005KT 6SM BR BKN030=

USA.gov is the U.S. government's official web portal to all federal, state and local government web resources and services.